Time;durP1;ratioP1;P1;durP2;ratioP2;P2;SDS_P1;SDS_P2;PMS_P1;PMS_P2;Temp;Humidity;BMP_temperature;BMP_pressure;BME280_temperature;BME280_humidity;BME280_pressure;Samples;Min_cycle;Max_cycle;Signal;HPM_P1;HPM_P2
2020/12/31 00:01:15;;;;;;;10.00;8.95;;;;;;;;;;5105471;28;21258;-50
2020/12/31 00:03:40;;;;;;;10.63;8.93;;;;;;;;;;5110132;28;20288;-51
2020/12/31 00:06:05;;;;;;;10.65;9.55;;;;;;;;;;5109813;28;20521;-51
2020/12/31 00:08:30;;;;;;;9.88;8.98;;;;;;;;;;5110495;28;20200;-51
2020/12/31 00:10:55;;;;;;;11.77;10.25;;;;;;;;;;5109091;28;20180;-50
2020/12/31 00:13:20;;;;;;;11.87;10.10;;;;;;;;;;5109741;28;20536;-50
2020/12/31 00:15:46;;;;;;;10.85;9.75;;;;;;;;;;5109526;28;20194;-50
2020/12/31 00:18:11;;;;;;;12.73;9.93;;;;;;;;;;5107696;28;20212;-51
2020/12/31 00:20:36;;;;;;;10.98;9.95;;;;;;;;;;5110656;28;20304;-51
2020/12/31 00:23:01;;;;;;;10.73;9.53;;;;;;;;;;5111873;28;20225;-51
2020/12/31 00:25:26;;;;;;;11.50;10.07;;;;;;;;;;5112068;28;20196;-51
2020/12/31 00:27:51;;;;;;;11.10;9.95;;;;;;;;;;5107551;28;20228;-50
2020/12/31 00:30:17;;;;;;;11.47;10.27;;;;;;;;;;5109890;28;20204;-51
2020/12/31 00:32:43;;;;;;;11.90;10.73;;;;;;;;;;5109144;28;20527;-51
2020/12/31 00:35:08;;;;;;;12.23;10.63;;;;;;;;;;5111051;28;20180;-50
2020/12/31 00:37:34;;;;;;;14.33;11.37;;;;;;;;;;5113062;28;21232;-52
2020/12/31 00:40:00;;;;;;;12.83;11.53;;;;;;;;;;5113560;28;20193;-50
2020/12/31 00:42:25;;;;;;;12.33;11.10;;;;;;;;;;5113606;27;20709;-51
2020/12/31 00:44:50;;;;;;;14.47;10.67;;;;;;;;;;5112155;28;20699;-51
2020/12/31 00:47:15;;;;;;;12.30;11.20;;;;;;;;;;5106697;28;20168;-50
2020/12/31 00:49:40;;;;;;;11.88;10.68;;;;;;;;;;5109171;28;20256;-51
2020/12/31 00:52:06;;;;;;;11.93;10.67;;;;;;;;;;5113702;27;20188;-50
2020/12/31 00:54:31;;;;;;;12.82;10.25;;;;;;;;;;5113104;28;20177;-51
2020/12/31 00:56:56;;;;;;;10.95;9.65;;;;;;;;;;5109054;28;20234;-50
2020/12/31 00:59:21;;;;;;;11.45;10.25;;;;;;;;;;5113444;28;20434;-50
2020/12/31 01:01:46;;;;;;;12.40;11.10;;;;;;;;;;5115564;27;20208;-50
2020/12/31 01:04:11;;;;;;;12.20;10.50;;;;;;;;;;5113084;28;20561;-51
2020/12/31 01:06:37;;;;;;;11.23;10.00;;;;;;;;;;5112346;28;20170;-50
2020/12/31 01:09:06;;;;;;;11.83;10.67;;;;;;;;;;5108771;28;20533;-50
2020/12/31 01:11:31;;;;;;;11.50;10.40;;;;;;;;;;5113118;28;20616;-50
2020/12/31 01:13:56;;;;;;;12.20;10.75;;;;;;;;;;5112731;28;20597;-50
2020/12/31 01:16:22;;;;;;;11.07;10.07;;;;;;;;;;5109322;27;20660;-50
2020/12/31 01:18:47;;;;;;;12.45;10.85;;;;;;;;;;5110401;28;20221;-49
2020/12/31 01:21:12;;;;;;;14.23;11.95;;;;;;;;;;5112061;28;20195;-50
2020/12/31 01:23:37;;;;;;;11.93;10.68;;;;;;;;;;5111934;28;20643;-51
2020/12/31 01:26:02;;;;;;;12.37;11.07;;;;;;;;;;5110260;28;20176;-50
2020/12/31 01:28:27;;;;;;;13.77;12.32;;;;;;;;;;5112771;28;20904;-50
2020/12/31 01:30:52;;;;;;;12.32;11.05;;;;;;;;;;5112807;28;20186;-51
2020/12/31 01:33:18;;;;;;;12.43;11.23;;;;;;;;;;5111969;28;20179;-49
2020/12/31 01:35:43;;;;;;;12.63;10.93;;;;;;;;;;5110292;28;20202;-50
2020/12/31 01:38:08;;;;;;;11.00;9.93;;;;;;;;;;5113837;27;20201;-51
2020/12/31 01:40:33;;;;;;;12.77;11.07;;;;;;;;;;5112404;28;20198;-50
2020/12/31 01:42:58;;;;;;;13.45;10.70;;;;;;;;;;5112004;28;20198;-50
2020/12/31 01:45:23;;;;;;;11.60;10.43;;;;;;;;;;5109469;28;20160;-51
2020/12/31 01:47:49;;;;;;;12.60;10.90;;;;;;;;;;5110040;28;20277;-50
2020/12/31 01:50:14;;;;;;;11.97;10.70;;;;;;;;;;5111937;28;20174;-50
2020/12/31 01:52:39;;;;;;;12.23;10.93;;;;;;;;;;5111509;28;20192;-50
2020/12/31 01:55:06;;;;;;;12.27;10.32;;;;;;;;;;5111727;28;20222;-50
2020/12/31 01:57:31;;;;;;;13.63;11.27;;;;;;;;;;5108287;28;20303;-50
2020/12/31 01:59:56;;;;;;;11.13;9.45;;;;;;;;;;5111541;28;20644;-51
2020/12/31 02:02:22;;;;;;;12.33;10.87;;;;;;;;;;5114957;27;20235;-50
2020/12/31 02:04:49;;;;;;;12.83;10.20;;;;;;;;;;5111505;28;20259;-50
2020/12/31 02:07:14;;;;;;;10.23;9.27;;;;;;;;;;5107800;28;20257;-50
2020/12/31 02:09:39;;;;;;;10.82;9.73;;;;;;;;;;5111592;28;20689;-51
2020/12/31 02:12:04;;;;;;;12.38;10.18;;;;;;;;;;5109484;28;20175;-50
2020/12/31 02:14:30;;;;;;;10.70;9.60;;;;;;;;;;5111552;28;20253;-51
2020/12/31 02:16:55;;;;;;;12.23;10.77;;;;;;;;;;5109893;28;20178;-51
2020/12/31 02:19:20;;;;;;;11.40;9.87;;;;;;;;;;5111383;28;20259;-50
2020/12/31 02:21:49;;;;;;;11.82;10.63;;;;;;;;;;5111242;28;20257;-51
2020/12/31 02:24:14;;;;;;;14.27;11.53;;;;;;;;;;5106702;28;20262;-50
2020/12/31 02:26:41;;;;;;;12.67;11.20;;;;;;;;;;5109305;28;20600;-50
2020/12/31 02:29:06;;;;;;;13.33;11.03;;;;;;;;;;5111540;28;20624;-50
2020/12/31 02:31:32;;;;;;;11.47;10.30;;;;;;;;;;5111167;28;20608;-50
2020/12/31 02:33:58;;;;;;;13.80;10.33;;;;;;;;;;5111064;28;20609;-50
2020/12/31 02:36:24;;;;;;;11.57;10.20;;;;;;;;;;5108674;28;20266;-50
2020/12/31 02:38:50;;;;;;;11.20;9.77;;;;;;;;;;5110441;28;20600;-51
2020/12/31 02:41:15;;;;;;;15.83;11.20;;;;;;;;;;5110690;28;20650;-50
2020/12/31 02:43:41;;;;;;;11.97;9.80;;;;;;;;;;5111272;28;20194;-50
2020/12/31 02:46:07;;;;;;;12.27;11.00;;;;;;;;;;5110182;28;20172;-50
2020/12/31 02:48:32;;;;;;;16.10;11.63;;;;;;;;;;5107306;28;20649;-51
2020/12/31 02:50:57;;;;;;;14.00;11.20;;;;;;;;;;5110207;28;20604;-50
2020/12/31 02:53:23;;;;;;;12.83;10.30;;;;;;;;;;5110445;28;20552;-51
2020/12/31 02:55:48;;;;;;;14.23;11.30;;;;;;;;;;5110131;28;20183;-50
2020/12/31 02:58:13;;;;;;;16.00;11.27;;;;;;;;;;5106505;28;20666;-50
2020/12/31 03:00:38;;;;;;;13.30;10.57;;;;;;;;;;5108930;28;20522;-49
2020/12/31 03:03:03;;;;;;;17.52;12.20;;;;;;;;;;5110224;28;20260;-50
2020/12/31 03:05:28;;;;;;;12.37;11.10;;;;;;;;;;5110534;28;20170;-50
2020/12/31 03:07:54;;;;;;;12.93;11.27;;;;;;;;;;5107078;28;20711;-50
2020/12/31 03:10:19;;;;;;;14.43;11.03;;;;;;;;;;5110442;28;20644;-50
2020/12/31 03:12:44;;;;;;;16.13;12.93;;;;;;;;;;5110501;28;20675;-50
2020/12/31 03:15:10;;;;;;;12.50;10.80;;;;;;;;;;5110308;28;20170;-50
2020/12/31 03:17:35;;;;;;;12.63;10.50;;;;;;;;;;5108468;28;20227;-50
2020/12/31 03:20:00;;;;;;;12.45;11.25;;;;;;;;;;5110265;28;20218;-50
2020/12/31 03:22:25;;;;;;;13.88;10.95;;;;;;;;;;5110026;28;20171;-50
2020/12/31 03:24:50;;;;;;;12.83;10.87;;;;;;;;;;5110424;28;20275;-50
2020/12/31 03:27:15;;;;;;;12.73;11.15;;;;;;;;;;5107834;28;21812;-51
2020/12/31 03:29:40;;;;;;;12.10;10.90;;;;;;;;;;5108776;28;20652;-51
2020/12/31 03:32:05;;;;;;;12.73;11.30;;;;;;;;;;5111562;28;20179;-51
2020/12/31 03:34:31;;;;;;;12.68;11.48;;;;;;;;;;5110548;28;20177;-51
2020/12/31 03:36:56;;;;;;;13.88;12.07;;;;;;;;;;5108106;28;20577;-51
2020/12/31 03:39:21;;;;;;;12.63;10.80;;;;;;;;;;5123076;27;20181;-51
2020/12/31 03:41:46;;;;;;;14.45;11.90;;;;;;;;;;5111065;28;20195;-51
2020/12/31 03:44:11;;;;;;;12.50;11.07;;;;;;;;;;5102500;28;20171;-50
2020/12/31 03:46:36;;;;;;;13.30;11.07;;;;;;;;;;5108063;28;20177;-49
2020/12/31 03:49:02;;;;;;;11.95;10.55;;;;;;;;;;5106611;28;20260;-50
2020/12/31 03:51:27;;;;;;;14.70;11.80;;;;;;;;;;5106176;28;20171;-50
2020/12/31 03:53:52;;;;;;;13.47;11.97;;;;;;;;;;5109668;28;20187;-50
2020/12/31 03:56:18;;;;;;;12.70;11.13;;;;;;;;;;5109875;28;20246;-50
2020/12/31 03:58:43;;;;;;;13.87;12.40;;;;;;;;;;5108165;28;20190;-51
2020/12/31 04:01:08;;;;;;;13.85;11.95;;;;;;;;;;5111067;28;20636;-50
2020/12/31 04:03:34;;;;;;;14.52;12.00;;;;;;;;;;5113901;27;20600;-51
2020/12/31 04:05:59;;;;;;;12.80;11.50;;;;;;;;;;5109313;28;20189;-51
2020/12/31 04:08:24;;;;;;;14.18;10.95;;;;;;;;;;5108512;28;20250;-49
2020/12/31 04:10:49;;;;;;;13.18;11.88;;;;;;;;;;5113694;28;20184;-50
2020/12/31 04:13:14;;;;;;;13.48;12.07;;;;;;;;;;5113513;28;20175;-50
2020/12/31 04:15:39;;;;;;;15.02;12.27;;;;;;;;;;5113604;28;20199;-50
2020/12/31 04:18:04;;;;;;;13.23;11.70;;;;;;;;;;5109275;28;20184;-49
2020/12/31 04:20:29;;;;;;;11.83;10.60;;;;;;;;;;5112253;28;20222;-50
2020/12/31 04:22:55;;;;;;;13.60;12.05;;;;;;;;;;5113479;28;20645;-50
2020/12/31 04:25:20;;;;;;;12.60;11.30;;;;;;;;;;5113390;28;20251;-51
2020/12/31 04:27:45;;;;;;;14.60;12.85;;;;;;;;;;5111666;28;20188;-51
2020/12/31 04:30:10;;;;;;;15.23;11.80;;;;;;;;;;5113510;28;20526;-49
2020/12/31 04:32:35;;;;;;;15.48;12.80;;;;;;;;;;5113036;27;20166;-50
2020/12/31 04:35:00;;;;;;;13.20;11.80;;;;;;;;;;5114616;27;20196;-50
2020/12/31 04:37:25;;;;;;;13.80;12.38;;;;;;;;;;5113898;28;20177;-51
2020/12/31 04:39:51;;;;;;;13.90;12.48;;;;;;;;;;5122184;27;20177;-50
2020/12/31 04:42:16;;;;;;;17.30;13.03;;;;;;;;;;5113008;28;20819;-51
2020/12/31 04:44:41;;;;;;;14.25;12.18;;;;;;;;;;5113024;28;20630;-50
2020/12/31 04:47:17;;;;;;;15.67;14.10;;;;;;;;;;5113152;28;20709;-50
2020/12/31 04:49:43;;;;;;;17.10;12.83;;;;;;;;;;5109087;28;20170;-50
2020/12/31 04:52:08;;;;;;;14.53;13.10;;;;;;;;;;5113306;28;20601;-50
2020/12/31 04:54:37;;;;;;;14.40;12.80;;;;;;;;;;5112302;28;20661;-51
2020/12/31 04:57:02;;;;;;;14.43;12.40;;;;;;;;;;5110815;28;20511;-50
2020/12/31 04:59:27;;;;;;;16.00;13.50;;;;;;;;;;5113467;28;20604;-50
2020/12/31 05:01:52;;;;;;;15.63;13.77;;;;;;;;;;5111943;28;20671;-50
2020/12/31 05:04:17;;;;;;;15.55;13.57;;;;;;;;;;5113033;28;20245;-49
2020/12/31 05:06:44;;;;;;;17.80;14.38;;;;;;;;;;5109718;27;20258;-50
2020/12/31 05:09:13;;;;;;;16.00;14.23;;;;;;;;;;5111249;28;20162;-50
2020/12/31 05:11:42;;;;;;;17.93;14.10;;;;;;;;;;5112680;28;20599;-50
2020/12/31 05:14:08;;;;;;;15.67;13.57;;;;;;;;;;5112604;28;20599;-50
2020/12/31 05:16:33;;;;;;;17.03;13.90;;;;;;;;;;5109944;28;20599;-51
2020/12/31 05:18:58;;;;;;;14.57;13.07;;;;;;;;;;5108628;28;20871;-50
2020/12/31 05:21:23;;;;;;;15.20;13.00;;;;;;;;;;5111376;28;20229;-51
2020/12/31 05:23:48;;;;;;;20.90;14.15;;;;;;;;;;5112174;28;20182;-50
2020/12/31 05:26:29;;;;;;;16.30;14.60;;;;;;;;;;5112016;28;20198;-50
2020/12/31 05:28:55;;;;;;;17.90;15.33;;;;;;;;;;5110255;28;20584;-49
2020/12/31 05:31:21;;;;;;;16.50;14.47;;;;;;;;;;5112449;28;20686;-48
2020/12/31 05:33:46;;;;;;;14.23;12.73;;;;;;;;;;5100277;28;20702;-49
2020/12/31 05:36:17;;;;;;;17.33;13.07;;;;;;;;;;5111569;28;20595;-50
2020/12/31 05:38:48;;;;;;;17.93;12.97;;;;;;;;;;5108683;28;20178;-49
2020/12/31 05:41:13;;;;;;;16.37;14.00;;;;;;;;;;5111534;28;20635;-49
2020/12/31 05:43:39;;;;;;;15.27;13.20;;;;;;;;;;5112234;28;20603;-50
2020/12/31 05:46:09;;;;;;;14.73;12.97;;;;;;;;;;5111874;28;20517;-49
2020/12/31 05:48:35;;;;;;;19.10;13.80;;;;;;;;;;5107838;27;21156;-49
2020/12/31 05:51:19;;;;;;;15.50;13.00;;;;;;;;;;5111398;28;20592;-50
2020/12/31 05:53:44;;;;;;;15.97;13.33;;;;;;;;;;5111951;28;20709;-49
2020/12/31 05:56:10;;;;;;;14.03;12.53;;;;;;;;;;5111585;28;20645;-48
2020/12/31 05:58:42;;;;;;;14.40;12.73;;;;;;;;;;5108104;28;20174;-48
2020/12/31 06:01:11;;;;;;;16.67;13.07;;;;;;;;;;5111368;28;20639;-48
2020/12/31 06:03:37;;;;;;;15.00;11.97;;;;;;;;;;5111090;28;20958;-49
2020/12/31 06:06:06;;;;;;;16.00;13.77;;;;;;;;;;5118474;27;20648;-48
2020/12/31 06:08:35;;;;;;;14.97;13.10;;;;;;;;;;5108430;27;20166;-48
2020/12/31 06:11:01;;;;;;;16.10;13.33;;;;;;;;;;5109793;28;20635;-49
2020/12/31 06:13:35;;;;;;;14.33;12.83;;;;;;;;;;5111580;28;20616;-50
2020/12/31 06:16:02;;;;;;;16.03;11.93;;;;;;;;;;5111770;28;21037;-49
2020/12/31 06:18:30;;;;;;;14.30;12.27;;;;;;;;;;5109532;27;21053;-49
2020/12/31 06:20:59;;;;;;;16.43;12.10;;;;;;;;;;5116947;27;21254;-50
2020/12/31 06:23:32;;;;;;;14.87;13.17;;;;;;;;;;5111247;28;20584;-50
2020/12/31 06:25:58;;;;;;;14.20;11.53;;;;;;;;;;5110793;28;20595;-49
2020/12/31 06:28:23;;;;;;;14.17;11.97;;;;;;;;;;5109266;28;20604;-49
2020/12/31 06:30:49;;;;;;;13.33;11.90;;;;;;;;;;5110830;28;21016;-50
2020/12/31 06:33:17;;;;;;;13.50;11.90;;;;;;;;;;5108801;28;20188;-50
2020/12/31 06:35:46;;;;;;;13.20;11.80;;;;;;;;;;5110468;28;20628;-49
2020/12/31 06:38:11;;;;;;;13.10;11.70;;;;;;;;;;5107960;28;20597;-50
2020/12/31 06:40:37;;;;;;;13.18;11.48;;;;;;;;;;5111226;28;20658;-49
2020/12/31 06:43:12;;;;;;;16.63;13.17;;;;;;;;;;5111251;28;20198;-50
2020/12/31 06:45:47;;;;;;;16.00;12.77;;;;;;;;;;5112435;27;20197;-50
2020/12/31 06:48:25;;;;;;;14.47;12.10;;;;;;;;;;5106596;28;20596;-48
2020/12/31 06:50:59;;;;;;;13.20;11.90;;;;;;;;;;5110040;28;20626;-49
2020/12/31 06:53:28;;;;;;;14.30;12.67;;;;;;;;;;5110786;28;20599;-49
2020/12/31 06:55:54;;;;;;;13.90;12.10;;;;;;;;;;5110893;28;20620;-49
2020/12/31 06:58:19;;;;;;;13.97;12.50;;;;;;;;;;5109515;28;20600;-48
2020/12/31 07:00:45;;;;;;;12.73;11.40;;;;;;;;;;5110872;28;20198;-48
2020/12/31 07:03:10;;;;;;;17.13;13.70;;;;;;;;;;5109129;27;20234;-48
2020/12/31 07:05:35;;;;;;;15.02;11.98;;;;;;;;;;5109918;28;20215;-49
2020/12/31 07:08:00;;;;;;;15.80;13.40;;;;;;;;;;5108190;28;20169;-48
2020/12/31 07:10:42;;;;;;;16.00;13.20;;;;;;;;;;5109713;28;20322;-49
2020/12/31 07:13:27;;;;;;;13.53;12.13;;;;;;;;;;5109194;28;20166;-48
2020/12/31 07:15:52;;;;;;;14.20;11.50;;;;;;;;;;5109732;28;20604;-49
2020/12/31 07:18:19;;;;;;;13.97;12.40;;;;;;;;;;5109029;27;21012;-49
2020/12/31 07:20:44;;;;;;;16.83;14.13;;;;;;;;;;5108763;28;20202;-48
2020/12/31 07:23:09;;;;;;;14.87;12.63;;;;;;;;;;5108738;28;20600;-49
2020/12/31 07:25:42;;;;;;;14.70;12.73;;;;;;;;;;5110012;28;20206;-50
2020/12/31 07:28:14;;;;;;;14.17;12.03;;;;;;;;;;5107724;28;20243;-49
2020/12/31 07:30:49;;;;;;;17.90;13.10;;;;;;;;;;5109460;28;20630;-49
2020/12/31 07:33:32;;;;;;;16.83;13.37;;;;;;;;;;5106548;28;20710;-49
2020/12/31 07:35:57;;;;;;;14.90;13.33;;;;;;;;;;5107085;28;20594;-50
2020/12/31 07:38:25;;;;;;;13.85;11.90;;;;;;;;;;5104588;28;20603;-49
2020/12/31 07:40:51;;;;;;;15.47;13.90;;;;;;;;;;5106769;28;20208;-49
2020/12/31 07:43:16;;;;;;;14.37;12.80;;;;;;;;;;5106776;28;20596;-50
2020/12/31 07:45:49;;;;;;;16.10;12.63;;;;;;;;;;5106452;28;20602;-50
2020/12/31 07:48:14;;;;;;;17.07;13.17;;;;;;;;;;5104765;28;20197;-49
2020/12/31 07:50:39;;;;;;;18.17;14.00;;;;;;;;;;5107103;28;21249;-50
2020/12/31 07:53:07;;;;;;;17.30;14.40;;;;;;;;;;5107205;28;20174;-49
2020/12/31 07:55:35;;;;;;;18.30;13.17;;;;;;;;;;5106750;28;20193;-49
2020/12/31 07:58:00;;;;;;;16.63;13.90;;;;;;;;;;5104398;28;21099;-49
2020/12/31 08:00:25;;;;;;;14.47;12.90;;;;;;;;;;5105960;28;20630;-49
2020/12/31 08:02:51;;;;;;;15.57;12.40;;;;;;;;;;5105967;28;20644;-47
2020/12/31 08:05:20;;;;;;;17.07;14.37;;;;;;;;;;5106018;28;20167;-49
2020/12/31 08:07:50;;;;;;;17.53;14.20;;;;;;;;;;5104873;28;20610;-49
2020/12/31 08:10:15;;;;;;;17.30;14.77;;;;;;;;;;5105784;28;20607;-48
2020/12/31 08:12:40;;;;;;;18.02;14.55;;;;;;;;;;5106909;28;20611;-56
2020/12/31 08:15:06;;;;;;;17.23;14.40;;;;;;;;;;5106177;28;20310;-48
2020/12/31 08:17:31;;;;;;;19.30;15.07;;;;;;;;;;5105806;28;20179;-50
2020/12/31 08:19:57;;;;;;;21.80;17.23;;;;;;;;;;5102292;28;20644;-51
2020/12/31 08:22:27;;;;;;;19.73;16.30;;;;;;;;;;5105697;28;20176;-51
2020/12/31 08:25:06;;;;;;;18.07;16.20;;;;;;;;;;5106295;28;20187;-53
2020/12/31 08:27:35;;;;;;;19.20;15.67;;;;;;;;;;5105987;28;20627;-52
2020/12/31 08:30:00;;;;;;;19.60;16.63;;;;;;;;;;5103864;28;20604;-48
2020/12/31 08:32:26;;;;;;;22.20;16.90;;;;;;;;;;5106631;28;20683;-49
2020/12/31 08:34:53;;;;;;;18.97;15.70;;;;;;;;;;5106640;28;20201;-48
2020/12/31 08:37:19;;;;;;;20.67;17.20;;;;;;;;;;5106865;28;20593;-49
2020/12/31 08:39:48;;;;;;;20.90;16.70;;;;;;;;;;5104325;28;21150;-49
2020/12/31 08:42:14;;;;;;;22.00;17.93;;;;;;;;;;5105887;28;20612;-49
2020/12/31 08:44:45;;;;;;;21.10;17.00;;;;;;;;;;5105859;28;20606;-48
2020/12/31 08:47:40;;;;;;;20.70;18.27;;;;;;;;;;5105764;28;20649;-49
2020/12/31 08:50:08;;;;;;;20.07;17.30;;;;;;;;;;5095504;28;20841;-49
2020/12/31 08:52:33;;;;;;;18.57;16.57;;;;;;;;;;5106843;28;21227;-49
2020/12/31 08:55:09;;;;;;;22.05;18.20;;;;;;;;;;5106545;28;21406;-49
2020/12/31 08:57:34;;;;;;;23.30;17.80;;;;;;;;;;5108426;28;20188;-50
2020/12/31 08:59:59;;;;;;;20.90;18.10;;;;;;;;;;5106181;27;20614;-50
2020/12/31 09:02:24;;;;;;;21.20;18.30;;;;;;;;;;5110562;27;20173;-50
2020/12/31 09:05:09;;;;;;;23.10;18.90;;;;;;;;;;5110404;28;20182;-49
2020/12/31 09:07:34;;;;;;;22.50;18.57;;;;;;;;;;5112243;28;20271;-49
2020/12/31 09:10:10;;;;;;;23.77;20.45;;;;;;;;;;5110361;28;20701;-50
2020/12/31 09:12:35;;;;;;;25.63;20.50;;;;;;;;;;5112512;28;20470;-49
2020/12/31 09:15:04;;;;;;;22.67;18.73;;;;;;;;;;5112475;28;20951;-48
2020/12/31 09:17:31;;;;;;;23.60;19.80;;;;;;;;;;5097379;28;20510;-48
2020/12/31 09:19:57;;;;;;;25.17;19.63;;;;;;;;;;5111990;28;21199;-50
2020/12/31 09:22:22;;;;;;;23.95;19.42;;;;;;;;;;5112837;28;21180;-49
2020/12/31 09:24:47;;;;;;;24.30;18.90;;;;;;;;;;5112232;28;20196;-49
2020/12/31 09:27:20;;;;;;;22.02;19.73;;;;;;;;;;5112124;28;20172;-49
2020/12/31 09:29:45;;;;;;;21.13;18.50;;;;;;;;;;5110853;28;20237;-49
2020/12/31 09:32:11;;;;;;;21.48;19.08;;;;;;;;;;5112401;28;20594;-50
2020/12/31 09:34:36;;;;;;;25.88;20.63;;;;;;;;;;5112207;28;20185;-50
2020/12/31 09:37:01;;;;;;;22.85;19.25;;;;;;;;;;5112302;28;20240;-49
2020/12/31 09:39:53;;;;;;;22.03;19.20;;;;;;;;;;5110737;28;20216;-48
2020/12/31 09:42:18;;;;;;;21.90;18.50;;;;;;;;;;5111452;28;20189;-50
2020/12/31 09:44:43;;;;;;;22.00;19.55;;;;;;;;;;5112575;28;20600;-49
2020/12/31 09:47:08;;;;;;;19.73;17.50;;;;;;;;;;5112271;28;20194;-49
2020/12/31 09:49:33;;;;;;;24.80;19.40;;;;;;;;;;5108393;28;20187;-50
2020/12/31 09:51:59;;;;;;;24.08;19.27;;;;;;;;;;5112352;28;20654;-49
2020/12/31 09:54:24;;;;;;;21.50;19.20;;;;;;;;;;5112150;28;20187;-48
2020/12/31 09:56:49;;;;;;;23.83;18.65;;;;;;;;;;5112050;28;20169;-49
2020/12/31 09:59:14;;;;;;;24.67;20.92;;;;;;;;;;5109513;28;20172;-49
2020/12/31 10:01:39;;;;;;;24.77;20.38;;;;;;;;;;5111405;28;20238;-49
2020/12/31 10:04:04;;;;;;;22.67;20.20;;;;;;;;;;5112167;28;20169;-49
2020/12/31 10:06:30;;;;;;;25.33;19.48;;;;;;;;;;5111396;28;20632;-50
2020/12/31 10:08:55;;;;;;;24.90;20.90;;;;;;;;;;5109360;28;20248;-49
2020/12/31 10:11:20;;;;;;;24.17;20.02;;;;;;;;;;5112154;28;20179;-50
2020/12/31 10:13:46;;;;;;;24.05;19.92;;;;;;;;;;5111944;28;20619;-49
2020/12/31 10:16:11;;;;;;;21.70;17.90;;;;;;;;;;5111721;28;20173;-49
2020/12/31 10:18:36;;;;;;;21.43;19.13;;;;;;;;;;5109534;28;20901;-50
2020/12/31 10:21:01;;;;;;;19.83;17.73;;;;;;;;;;5107963;28;20266;-49
2020/12/31 10:23:27;;;;;;;19.42;17.33;;;;;;;;;;5111898;28;20238;-49
2020/12/31 10:25:52;;;;;;;23.53;18.23;;;;;;;;;;5111640;28;20256;-48
2020/12/31 10:28:18;;;;;;;22.80;19.30;;;;;;;;;;5111314;28;20211;-48
2020/12/31 10:30:43;;;;;;;19.30;16.83;;;;;;;;;;5106931;28;20202;-48
2020/12/31 10:33:08;;;;;;;22.20;19.08;;;;;;;;;;5109045;28;20638;-49
2020/12/31 10:35:33;;;;;;;23.55;17.80;;;;;;;;;;5110868;28;20174;-49
2020/12/31 10:37:59;;;;;;;20.98;17.00;;;;;;;;;;5107047;28;20182;-48
2020/12/31 10:40:24;;;;;;;16.57;14.77;;;;;;;;;;5108530;28;20675;-49
2020/12/31 10:42:49;;;;;;;17.42;15.07;;;;;;;;;;5110720;28;20171;-49
2020/12/31 10:45:14;;;;;;;18.85;15.68;;;;;;;;;;5110619;28;20193;-49
2020/12/31 10:47:39;;;;;;;23.13;18.47;;;;;;;;;;5110623;28;20222;-50
2020/12/31 10:50:04;;;;;;;21.70;18.83;;;;;;;;;;5108739;28;20170;-49
2020/12/31 10:52:30;;;;;;;18.90;15.70;;;;;;;;;;5110028;28;20228;-49
2020/12/31 10:54:55;;;;;;;16.53;14.77;;;;;;;;;;5110757;28;20658;-49
2020/12/31 10:57:20;;;;;;;13.43;12.07;;;;;;;;;;5110494;28;20267;-49
2020/12/31 10:59:45;;;;;;;13.63;12.30;;;;;;;;;;5108469;28;20255;-49
2020/12/31 11:02:11;;;;;;;14.13;12.67;;;;;;;;;;5109439;28;20204;-48
2020/12/31 11:04:36;;;;;;;13.73;12.33;;;;;;;;;;5108062;28;20177;-49
2020/12/31 11:07:01;;;;;;;12.85;11.13;;;;;;;;;;5108481;28;20262;-50
2020/12/31 11:09:28;;;;;;;11.60;10.43;;;;;;;;;;5104197;28;20243;-48
2020/12/31 11:11:53;;;;;;;10.23;9.27;;;;;;;;;;5109412;28;20174;-50
2020/12/31 11:14:18;;;;;;;9.80;8.75;;;;;;;;;;5109724;28;20602;-49
2020/12/31 11:16:47;;;;;;;9.27;8.30;;;;;;;;;;5109768;28;20183;-49
2020/12/31 11:19:12;;;;;;;9.17;8.20;;;;;;;;;;5108051;28;20287;-50
2020/12/31 11:21:37;;;;;;;8.45;7.75;;;;;;;;;;5108568;28;20647;-48
2020/12/31 11:24:02;;;;;;;8.38;7.57;;;;;;;;;;5104990;28;20623;-49
2020/12/31 11:26:27;;;;;;;6.90;6.32;;;;;;;;;;5108836;28;20174;-49
2020/12/31 11:28:52;;;;;;;5.37;4.97;;;;;;;;;;5103056;28;20166;-50
2020/12/31 11:31:24;;;;;;;5.10;4.80;;;;;;;;;;5107800;28;20180;-50
2020/12/31 11:33:49;;;;;;;5.20;4.80;;;;;;;;;;5104987;28;20511;-50
2020/12/31 11:36:14;;;;;;;5.70;5.20;;;;;;;;;;5108224;28;20656;-49
2020/12/31 11:38:40;;;;;;;5.40;4.90;;;;;;;;;;5109692;28;20177;-49
2020/12/31 11:41:06;;;;;;;4.83;4.43;;;;;;;;;;5106357;28;20201;-50
2020/12/31 11:43:31;;;;;;;4.73;4.43;;;;;;;;;;5110062;28;20185;-48
2020/12/31 11:45:57;;;;;;;4.47;4.17;;;;;;;;;;5109625;28;21007;-49
2020/12/31 11:48:22;;;;;;;4.60;4.20;;;;;;;;;;5109588;28;20198;-50
2020/12/31 11:50:51;;;;;;;5.47;5.07;;;;;;;;;;5105777;28;20342;-50
2020/12/31 11:53:16;;;;;;;5.27;4.77;;;;;;;;;;5109991;28;20178;-49
2020/12/31 11:55:42;;;;;;;5.43;4.70;;;;;;;;;;5109525;28;20603;-49
2020/12/31 11:58:07;;;;;;;5.00;4.60;;;;;;;;;;5108395;28;20206;-50
2020/12/31 12:00:32;;;;;;;4.97;4.57;;;;;;;;;;5107332;28;20195;-49
2020/12/31 12:02:57;;;;;;;4.60;4.20;;;;;;;;;;5109637;28;20516;-50
2020/12/31 12:05:22;;;;;;;5.13;4.72;;;;;;;;;;5111309;28;20206;-49
2020/12/31 12:07:47;;;;;;;5.20;4.70;;;;;;;;;;5109384;28;20174;-50
2020/12/31 12:10:13;;;;;;;4.93;4.53;;;;;;;;;;5106063;28;20214;-49
2020/12/31 12:12:38;;;;;;;4.50;4.10;;;;;;;;;;5109255;28;20221;-49
2020/12/31 12:15:04;;;;;;;7.37;4.27;;;;;;;;;;5109183;28;20200;-50
2020/12/31 12:17:29;;;;;;;4.43;4.13;;;;;;;;;;5109241;28;20549;-50
2020/12/31 12:19:55;;;;;;;4.70;4.30;;;;;;;;;;5106024;28;21001;-50
2020/12/31 12:22:20;;;;;;;6.60;5.00;;;;;;;;;;5109599;28;20174;-49
2020/12/31 12:24:45;;;;;;;7.23;5.53;;;;;;;;;;5110462;28;20206;-49
2020/12/31 12:27:10;;;;;;;5.63;5.13;;;;;;;;;;5113472;28;20181;-49
2020/12/31 12:29:35;;;;;;;6.10;5.50;;;;;;;;;;5108681;28;20204;-49
2020/12/31 12:32:00;;;;;;;5.82;5.32;;;;;;;;;;5111843;28;20636;-50
2020/12/31 12:34:25;;;;;;;6.10;5.60;;;;;;;;;;5113698;28;20352;-49
2020/12/31 12:36:51;;;;;;;6.35;5.75;;;;;;;;;;5113160;28;20182;-50
2020/12/31 12:39:16;;;;;;;6.40;5.80;;;;;;;;;;5113581;28;20170;-50
2020/12/31 12:41:42;;;;;;;5.60;5.10;;;;;;;;;;5112062;28;20199;-50
2020/12/31 12:44:07;;;;;;;6.03;5.53;;;;;;;;;;5111616;28;20197;-50
2020/12/31 12:46:32;;;;;;;5.95;5.47;;;;;;;;;;5113338;28;20173;-50
2020/12/31 12:48:58;;;;;;;6.03;5.50;;;;;;;;;;5113588;28;20521;-50
2020/12/31 12:51:23;;;;;;;6.90;6.20;;;;;;;;;;5109896;28;20566;-50
2020/12/31 12:53:48;;;;;;;6.67;6.07;;;;;;;;;;5112466;28;20223;-50
2020/12/31 12:56:13;;;;;;;6.85;6.25;;;;;;;;;;5113292;28;20715;-49
2020/12/31 12:58:39;;;;;;;7.00;6.40;;;;;;;;;;5112780;28;20217;-50
2020/12/31 13:01:04;;;;;;;6.60;6.00;;;;;;;;;;5109144;28;20194;-50
2020/12/31 13:03:29;;;;;;;7.60;6.80;;;;;;;;;;5113146;28;20598;-50
2020/12/31 13:05:54;;;;;;;7.55;6.75;;;;;;;;;;5113720;28;20175;-50
2020/12/31 13:08:21;;;;;;;7.30;6.60;;;;;;;;;;5112872;28;20168;-50
2020/12/31 13:10:49;;;;;;;8.00;7.27;;;;;;;;;;5110170;28;20183;-50
2020/12/31 13:13:15;;;;;;;8.90;8.10;;;;;;;;;;5111949;28;20703;-49
2020/12/31 13:15:43;;;;;;;9.10;8.33;;;;;;;;;;5108991;27;20719;-48
2020/12/31 13:18:11;;;;;;;9.20;8.30;;;;;;;;;;5117903;27;21117;-49
2020/12/31 13:20:39;;;;;;;10.70;9.70;;;;;;;;;;5107756;28;21243;-48
2020/12/31 13:23:04;;;;;;;10.33;9.33;;;;;;;;;;5112619;28;20622;-49
2020/12/31 13:25:29;;;;;;;10.37;9.37;;;;;;;;;;5112982;28;20657;-48
2020/12/31 13:27:54;;;;;;;11.25;10.15;;;;;;;;;;5112669;28;20167;-49
2020/12/31 13:30:20;;;;;;;11.60;10.52;;;;;;;;;;5110781;28;20281;-49
2020/12/31 13:32:45;;;;;;;11.53;10.43;;;;;;;;;;5112976;28;20162;-48
2020/12/31 13:35:11;;;;;;;12.23;11.00;;;;;;;;;;5112844;28;20688;-49
2020/12/31 13:37:36;;;;;;;11.33;10.30;;;;;;;;;;5112176;28;20181;-49
2020/12/31 13:40:01;;;;;;;11.27;10.10;;;;;;;;;;5110807;28;20596;-49
2020/12/31 13:42:27;;;;;;;11.63;10.53;;;;;;;;;;5112136;28;20625;-49
2020/12/31 13:44:52;;;;;;;12.48;10.50;;;;;;;;;;5112759;28;20170;-49
2020/12/31 13:47:17;;;;;;;11.77;10.67;;;;;;;;;;5111852;27;20186;-49
2020/12/31 13:49:42;;;;;;;11.10;10.10;;;;;;;;;;5110660;28;20271;-49
2020/12/31 13:52:07;;;;;;;13.32;12.02;;;;;;;;;;5111879;27;20173;-50
2020/12/31 13:54:33;;;;;;;12.95;11.65;;;;;;;;;;5117430;27;20181;-49
2020/12/31 13:56:58;;;;;;;13.77;12.47;;;;;;;;;;5112920;27;20202;-49
2020/12/31 13:59:23;;;;;;;12.88;11.65;;;;;;;;;;5113189;27;20187;-50
2020/12/31 14:01:52;;;;;;;12.97;11.57;;;;;;;;;;5110264;27;20293;-50
2020/12/31 14:04:17;;;;;;;14.43;12.13;;;;;;;;;;5111942;28;20173;-49
2020/12/31 14:06:43;;;;;;;12.30;11.10;;;;;;;;;;5112291;28;20588;-49
2020/12/31 14:09:09;;;;;;;11.80;10.63;;;;;;;;;;5111960;28;20162;-49
2020/12/31 14:11:35;;;;;;;11.40;10.30;;;;;;;;;;5110404;28;20258;-48
2020/12/31 14:14:00;;;;;;;11.73;10.67;;;;;;;;;;5112177;28;20655;-50
2020/12/31 14:16:25;;;;;;;13.00;11.70;;;;;;;;;;5111633;28;20196;-48